METAR Data
IDs: Format: Raw Decoded Include TAF

Data at: 2329 UTC 26 Feb 2020

NZCH 262300Z AUTO 33011KT 9999 NCD 22/06 Q1006 NOSIG
NZCH 262230Z AUTO 35012KT 9999 NCD 22/06 Q1006 NOSIG
NZCH 262200Z AUTO 35010KT 9999 NCD 23/06 Q1006 NOSIG
NZCH 262130Z AUTO 36003KT 9999 NCD 23/10 Q1006 NOSIG
NZCH 262100Z AUTO 02005KT 340V050 9999 NCD 22/11 Q1006 BECMG 34012KT
NZCH 262030Z AUTO 02008KT 9999 NCD 22/10 Q1007 BECMG 34012KT

TAF NZCH 262300Z 2700/2800 34012KT CAVOK
  BECMG 2704/2706 04008KT
  BECMG 2723/2800 34012KT